• Join FlightAware (Why Join?)
  • Login
  • US Flag 
10:35AM EDT


 

Airport Tracker/Info


-or-


 

Live Flight TrackerFlight Track Log ✈ AWI4083 ✈ 25-Apr-2013 ✈ KDCA - KCHS

Flight Track Log - Related Links

Times and Time Zones

All times are in EDT time to prevent confusion due to time zone crossing. See the AWI4083 flight status page for this flight to view local times or setup timezone preferences in your user account.

Time Position Orientation Groundspeed Altitude Reporting Facility
EDT Latitude Longitude Course Direction KTS MPH feet Rate Location/Type
11:42AM 38.9000 -77.0833 180° South 199 229 2,600  Level Potomac TRACON
11:43AM 38.9500 -77.1500 314° West 252 290 5,700 2,700 Climbing Potomac TRACON
11:44AM 38.6210 -76.7947 134° Southeast  Level FlightAware Approximate
11:44AM 39.0000 -77.1833 333° Northwest 271 312 8,000  Level Potomac TRACON
11:45AM 38.5440 -76.7167 180° South  Level FlightAware Approximate
11:45AM 39.0333 -77.1000 63° Northeast 310 357 10,600  Level Potomac TRACON
11:46AM 38.4453 -76.7000 180° South  Level FlightAware Approximate
11:46AM 38.9833 -77.0167 128° Southeast 322 371 13,000  Level Potomac TRACON
11:47AM 38.3586 -76.6833 180° South  Level FlightAware Approximate
11:47AM 38.9167 -76.9500 142° Southeast 311 358 15,300  Level Potomac TRACON
11:48AM 38.8500 -76.9167 159° South 338 389 17,200 1,500 Climbing Potomac TRACON
11:49AM 38.7339 -76.8425 154° Southeast 349 402 19,000 660 Climbing Washington Center
11:50AM 38.6469 -76.7878 154° Southeast 343 395 19,000 240 Level Washington Center
11:51AM 38.5578 -76.7333 154° Southeast 343 395 19,500 900 Climbing Washington Center
11:52AM 38.4642 -76.7161 172° South 343 395 20,800 1,260 Climbing Washington Center
11:53AM 38.3703 -76.7039 174° South 343 395 22,100 1,140 Climbing Washington Center
11:54AM 38.2744 -76.6867 172° South 343 395 23,100 900 Climbing Washington Center
11:55AM 38.1744 -76.6747 175° South 354 407 24,000 1,020 Climbing Washington Center
11:56AM 38.0767 -76.6600 173° South 354 407 25,200 1,260 Climbing Washington Center
11:57AM 37.9789 -76.6481 174° South 354 407 26,600 1,260 Climbing Washington Center
11:58AM 37.8869 -76.6547 183° South 349 402 27,800 1,020 Climbing Washington Center
11:59AM 37.7972 -76.6667 186° South 337 388 28,700 900 Climbing Washington Center
12:00PM 37.7053 -76.6786 186° South 332 382 29,700 600 Climbing Washington Center
12:01PM 37.6133 -76.6903 186° South 332 382 30,000 120 Climbing Washington Center
12:02PM 37.5172 -76.7019 185° South 338 389 30,000  Level Washington Center
12:03PM 37.4169 -76.7214 189° South 357 411 30,000  Level Washington Center
12:04PM 37.3208 -76.7592 197° South 357 411 30,000  Level Washington Center
12:05PM 37.2264 -76.8022 200° South 362 417 30,000  Level Washington Center
12:06PM 37.1300 -76.8397 197° South 367 422 30,000  Level Washington Center
12:07PM 37.0358 -76.8825 200° South 367 422 30,000  Level Washington Center
12:08PM 36.9372 -76.9222 198° South 367 422 30,000  Level Washington Center
12:09PM 36.8408 -76.9597 197° South 367 422 30,000  Level Washington Center
12:10PM 36.7444 -77.0019 199° South 367 422 30,000  Level Washington Center
12:11PM 36.6603 -77.0625 210° Southwest 362 417 30,000  Level Washington Center
12:12PM 36.5800 -77.1361 216° Southwest 356 410 30,000  Level Washington Center
12:13PM 36.5019 -77.2147 219° Southwest 363 418 30,000  Level Washington Center
12:14PM 36.4217 -77.2906 217° Southwest 368 423 30,000  Level Washington Center
12:15PM 36.3411 -77.3636 216° Southwest 368 423 30,000  Level Washington Center
12:16PM 36.2608 -77.4414 218° Southwest 368 423 30,000  Level Washington Center
12:17PM 36.1844 -77.5144 218° Southwest 368 423 30,000  Level Washington Center
12:18PM 36.0997 -77.5894 216° Southwest 375 432 30,000  Level Washington Center
12:19PM 36.0214 -77.6644 218° Southwest 375 432 30,000  Level Washington Center
12:20PM 35.9367 -77.7367 215° Southwest 375 432 30,000  Level Washington Center
12:21PM 35.8497 -77.8086 214° Southwest 375 432 30,000  Level Washington Center
12:22PM 35.7608 -77.8753 211° Southwest 375 432 30,000  Level Washington Center
12:23PM 35.6719 -77.9444 212° Southwest 380 437 30,000  Level Washington Center
12:24PM 35.5828 -78.0131 212° Southwest 380 437 30,000  Level Washington Center
12:25PM 35.4939 -78.0819 212° Southwest 380 437 30,000 -480 Level Washington Center
12:26PM 35.4006 -78.1556 213° Southwest 385 443 29,100 -960 Descending Washington Center
12:27PM 35.3114 -78.2239 212° Southwest 385 443 28,100 -600 Descending Washington Center
12:28PM 35.2200 -78.2947 212° Southwest 385 443 28,000 -60 Descending Washington Center
12:29PM 35.1308 -78.3628 212° Southwest 385 443 28,000  Level Washington Center
12:33PM 34.8128 -78.6042 212° Southwest 383 441 28,000  Level Jacksonville Center
12:34PM 34.7275 -78.6717 213° Southwest 383 441 28,000  Level Jacksonville Center
12:35PM 34.6381 -78.7392 212° Southwest 383 441 28,000  Level Jacksonville Center
12:36PM 34.5483 -78.8064 212° Southwest 383 441 28,000  Level Jacksonville Center
12:37PM 34.4589 -78.8811 215° Southwest 393 452 28,000  Level Jacksonville Center
12:38PM 34.3672 -78.9508 212° Southwest 393 452 28,000  Level Jacksonville Center
12:39PM 34.2736 -79.0206 212° Southwest 393 452 28,000  Level Jacksonville Center
12:40PM 34.1708 -79.0703 202° Southwest 393 452 28,000 -480 Level Jacksonville Center
12:41PM 34.0636 -79.1150 199° South 405 466 27,100 -1,380 Descending Jacksonville Center
12:42PM 33.9544 -79.1647 201° Southwest 411 473 25,300 -2,040 Descending Jacksonville Center
12:43PM 33.8558 -79.2114 201° Southwest 405 466 23,100 -2,280 Descending Jacksonville Center
12:44PM 33.7611 -79.2578 202° Southwest 386 444 20,800 -2,340 Descending Jacksonville Center
12:45PM 33.6711 -79.3239 211° Southwest 357 411 18,400 -1,440 Descending Jacksonville Center
12:46PM 33.5894 -79.3869 213° Southwest 356 410 18,000 -1,200 Descending Jacksonville Center
12:47PM 33.5078 -79.4475 212° Southwest 356 410 16,100 -2,340 Descending Jacksonville Center
12:48PM 33.4300 -79.5053 212° Southwest 345 397 13,400 -2,580 Descending Jacksonville Center
12:49PM 33.3522 -79.5656 213° Southwest 340 391 11,000 -1,500 Descending Jacksonville Center
12:50PM 33.2786 -79.6181 211° Southwest 330 380 10,400 -1,140 Descending Jacksonville Center
12:51PM 33.2194 -79.6747 219° Southwest 305 351 8,800 -1,680 Descending Jacksonville Center
12:52PM 33.2025 -79.7450 254° West 251 289 7,100 -1,680 Descending Jacksonville Center
12:53PM 33.1981 -79.8169 266° West 227 261 5,500 -1,620 Descending Jacksonville Center
12:54PM 33.1914 -79.8892 264° West 222 255 3,900 -1,320 Descending Jacksonville Center
12:55PM 33.1442 -79.9231 211° Southwest 195 224 2,900 -540 Descending Jacksonville Center
12:56PM 33.0903 -79.9472 201° Southwest 195 224 2,900  Level Jacksonville Center